Time;durP1;ratioP1;P1;durP2;ratioP2;P2;SDS_P1;SDS_P2;PMS_P1;PMS_P2;Temp;Humidity;BMP_temperature;BMP_pressure;BME280_temperature;BME280_humidity;BME280_pressure;Samples;Min_cycle;Max_cycle;Signal;HPM_P1;HPM_P2
2022/04/05 00:01:17;;;;;;;14.57;2.53;;;5.60;99.90;;;;;;5057039;28;20197;-81
2022/04/05 00:03:43;;;;;;;10.63;2.60;;;5.60;99.90;;;;;;5058838;28;20965;-81
2022/04/05 00:06:08;;;;;;;6.73;1.17;;;5.50;99.90;;;;;;5054667;28;20638;-83
2022/04/05 00:08:36;;;;;;;8.00;0.70;;;5.60;99.90;;;;;;5051541;28;20178;-80
2022/04/05 00:11:02;;;;;;;7.30;1.67;;;5.50;99.90;;;;;;5048522;28;20245;-80
2022/04/05 00:13:27;;;;;;;6.77;1.30;;;5.50;99.90;;;;;;5053083;28;20451;-80
2022/04/05 00:15:53;;;;;;;11.37;3.53;;;5.60;99.90;;;;;;5054653;28;20634;-80
2022/04/05 00:18:19;;;;;;;10.70;1.80;;;5.60;99.90;;;;;;5053162;28;20216;-81
2022/04/05 00:20:45;;;;;;;7.97;1.47;;;5.60;99.90;;;;;;5055245;28;20260;-81
2022/04/05 00:23:11;;;;;;;11.87;1.47;;;5.70;99.90;;;;;;5067216;28;20441;-79
2022/04/05 00:25:36;;;;;;;6.57;0.70;;;5.70;99.90;;;;;;5060346;28;20169;-80
2022/04/05 00:28:02;;;;;;;7.97;1.00;;;5.70;99.90;;;;;;5066423;28;20166;-80
2022/04/05 00:30:28;;;;;;;2.90;0.77;;;5.70;99.90;;;;;;5064780;28;20209;-79
2022/04/05 00:32:53;;;;;;;6.13;0.97;;;5.80;99.90;;;;;;5063930;28;20200;-79
2022/04/05 00:35:21;;;;;;;9.23;2.17;;;5.80;99.90;;;;;;5055621;28;20634;-80
2022/04/05 00:37:48;;;;;;;5.10;0.83;;;5.80;99.90;;;;;;5052828;28;20308;-80
2022/04/05 00:40:13;;;;;;;6.53;0.97;;;5.80;99.90;;;;;;5052357;28;20966;-80
2022/04/05 00:42:39;;;;;;;10.23;1.47;;;5.80;99.90;;;;;;5053742;28;20416;-81
2022/04/05 00:45:06;;;;;;;4.00;0.57;;;5.80;99.90;;;;;;5053916;28;20173;-81
2022/04/05 00:47:31;;;;;;;8.27;1.60;;;5.80;99.90;;;;;;5052527;28;20169;-80
2022/04/05 00:49:58;;;;;;;7.27;2.57;;;5.70;99.90;;;;;;5052325;28;20516;-81
2022/04/05 00:52:23;;;;;;;10.57;1.20;;;5.70;99.90;;;;;;5052401;28;20806;-80
2022/04/05 00:54:51;;;;;;;11.07;1.00;;;5.70;99.90;;;;;;5052025;28;20420;-81
2022/04/05 00:57:19;;;;;;;7.73;0.80;;;5.60;99.90;;;;;;5052154;28;20174;-80
2022/04/05 00:59:47;;;;;;;7.37;0.83;;;5.50;99.90;;;;;;5053465;28;20415;-80
2022/04/05 01:02:14;;;;;;;11.93;1.80;;;5.50;99.90;;;;;;5053472;28;20416;-80
2022/04/05 01:04:42;;;;;;;10.93;2.07;;;5.40;99.90;;;;;;5052883;28;20412;-80
2022/04/05 01:07:16;;;;;;;5.77;1.50;;;5.30;99.90;;;;;;5053373;28;20424;-80
2022/04/05 01:09:42;;;;;;;11.80;1.60;;;5.40;99.90;;;;;;5051542;28;20955;-80
2022/04/05 01:12:10;;;;;;;7.43;1.07;;;5.40;99.90;;;;;;5053258;28;20416;-81
2022/04/05 01:14:37;;;;;;;6.90;1.40;;;5.60;99.90;;;;;;5053324;28;20412;-81
2022/04/05 01:17:04;;;;;;;9.57;1.20;;;5.50;99.90;;;;;;5053337;28;20420;-81
2022/04/05 01:19:33;;;;;;;7.70;0.43;;;5.60;99.90;;;;;;5053155;28;20936;-81
2022/04/05 01:21:59;;;;;;;8.03;1.20;;;5.60;99.90;;;;;;5053364;28;20846;-81
2022/04/05 01:24:25;;;;;;;8.83;1.73;;;5.60;99.90;;;;;;5053174;28;20507;-81
2022/04/05 01:26:57;;;;;;;7.70;1.90;;;5.60;99.90;;;;;;5051568;28;20494;-81
2022/04/05 01:29:26;;;;;;;10.77;1.57;;;5.60;99.90;;;;;;5053270;28;20173;-81
2022/04/05 01:31:53;;;;;;;8.60;1.50;;;5.60;99.90;;;;;;5051702;28;20839;-81
2022/04/05 01:34:20;;;;;;;3.93;0.83;;;5.50;99.90;;;;;;5052978;28;20413;-80
2022/04/05 01:36:51;;;;;;;7.53;1.43;;;5.60;99.90;;;;;;5052610;28;20463;-81
2022/04/05 01:39:18;;;;;;;5.67;0.50;;;5.50;99.90;;;;;;5053006;28;20831;-82
2022/04/05 01:41:45;;;;;;;3.17;0.93;;;5.50;99.90;;;;;;5051395;28;20416;-81
2022/04/05 01:44:13;;;;;;;8.60;0.73;;;5.50;99.90;;;;;;5051672;28;20558;-80
2022/04/05 01:46:39;;;;;;;9.67;1.53;;;5.50;99.90;;;;;;5052824;28;20428;-80
2022/04/05 01:49:06;;;;;;;5.43;1.07;;;5.60;99.90;;;;;;5051798;28;20404;-81
2022/04/05 01:51:46;;;;;;;8.97;1.27;;;5.60;99.90;;;;;;5052782;28;20949;-80
2022/04/05 01:54:13;;;;;;;5.83;0.87;;;5.60;99.90;;;;;;5052829;28;20404;-80
2022/04/05 01:56:44;;;;;;;3.60;0.60;;;5.40;99.90;;;;;;5051172;28;20540;-81
2022/04/05 01:59:12;;;;;;;4.13;0.93;;;5.30;99.90;;;;;;5052540;28;20913;-80
2022/04/05 02:01:37;;;;;;;6.87;0.60;;;5.20;99.90;;;;;;5052713;28;20818;-81
2022/04/05 02:04:04;;;;;;;6.63;0.60;;;5.20;99.90;;;;;;5052657;28;20416;-82
2022/04/05 02:06:30;;;;;;;10.40;1.40;;;5.10;99.90;;;;;;5052716;28;20184;-81
2022/04/05 02:08:55;;;;;;;7.60;1.07;;;5.10;99.90;;;;;;5051443;28;20829;-80
2022/04/05 02:11:22;;;;;;;4.77;0.63;;;5.10;99.90;;;;;;5050890;28;20480;-81
2022/04/05 02:13:48;;;;;;;6.87;0.97;;;4.90;99.90;;;;;;5052598;28;20166;-81
2022/04/05 02:16:14;;;;;;;3.53;1.10;;;4.90;99.90;;;;;;5052656;28;20489;-82
2022/04/05 02:18:41;;;;;;;4.87;0.80;;;4.80;99.90;;;;;;5055051;28;20200;-81
2022/04/05 02:21:07;;;;;;;4.77;1.30;;;4.80;99.90;;;;;;5056531;28;20216;-81
2022/04/05 02:23:32;;;;;;;6.70;1.27;;;4.80;99.90;;;;;;5056449;28;20427;-81
2022/04/05 02:25:58;;;;;;;6.50;0.77;;;4.90;99.90;;;;;;5056066;28;20822;-81
2022/04/05 02:28:25;;;;;;;4.47;0.50;;;4.90;99.90;;;;;;5056391;28;20169;-82
2022/04/05 02:30:51;;;;;;;6.53;1.33;;;4.90;99.90;;;;;;5056160;28;20579;-81
2022/04/05 02:33:16;;;;;;;10.23;0.77;;;4.80;99.90;;;;;;5056333;28;20424;-81
2022/04/05 02:35:43;;;;;;;2.93;0.40;;;4.80;99.90;;;;;;5056278;28;20169;-81
2022/04/05 02:38:09;;;;;;;6.60;0.70;;;4.90;99.90;;;;;;5056012;28;20248;-82
2022/04/05 02:40:35;;;;;;;9.57;0.73;;;4.90;99.90;;;;;;5055678;28;20415;-82
2022/04/05 02:43:00;;;;;;;4.40;0.70;;;5.00;99.90;;;;;;5054747;28;20416;-82
2022/04/05 02:45:26;;;;;;;6.07;1.27;;;5.10;99.90;;;;;;5056034;28;20173;-81
2022/04/05 02:47:52;;;;;;;8.67;1.43;;;5.10;99.90;;;;;;5054762;28;20173;-81
2022/04/05 02:50:18;;;;;;;7.43;1.57;;;5.20;99.90;;;;;;5055830;28;20205;-81
2022/04/05 02:52:47;;;;;;;1.43;0.60;;;5.10;99.90;;;;;;5056024;28;20171;-81
2022/04/05 02:55:16;;;;;;;3.40;0.80;;;4.90;99.90;;;;;;5055450;28;20400;-81
2022/04/05 02:57:45;;;;;;;6.37;0.80;;;4.70;99.90;;;;;;5055813;28;20451;-80
2022/04/05 03:00:12;;;;;;;3.93;0.80;;;4.60;99.90;;;;;;5055821;28;20412;-81
2022/04/05 03:02:38;;;;;;;2.53;0.90;;;4.60;99.90;;;;;;5055701;28;20451;-80
2022/04/05 03:05:06;;;;;;;2.93;0.60;;;4.60;99.90;;;;;;5055728;28;20929;-81
2022/04/05 03:07:32;;;;;;;2.90;0.57;;;4.50;99.90;;;;;;5055605;28;20462;-82
2022/04/05 03:09:57;;;;;;;4.67;1.13;;;4.40;99.90;;;;;;5055206;28;20781;-81
2022/04/05 03:12:23;;;;;;;4.07;1.03;;;4.30;99.90;;;;;;5055515;28;20450;-82
2022/04/05 03:14:49;;;;;;;8.17;1.20;;;4.40;99.90;;;;;;5054272;28;20224;-81
2022/04/05 03:17:14;;;;;;;5.13;0.97;;;4.40;99.90;;;;;;5055647;28;20185;-81
2022/04/05 03:19:40;;;;;;;2.30;0.57;;;4.40;99.90;;;;;;5055329;28;20227;-81
2022/04/05 03:22:11;;;;;;;5.63;0.60;;;4.50;99.90;;;;;;5055286;28;20169;-82
2022/04/05 03:24:37;;;;;;;5.73;1.73;;;4.50;99.90;;;;;;5055033;28;20173;-81
2022/04/05 03:27:04;;;;;;;11.00;1.43;;;4.50;99.90;;;;;;5055368;28;20841;-81
2022/04/05 03:29:30;;;;;;;5.83;1.23;;;4.40;99.90;;;;;;5053496;28;20416;-82
2022/04/05 03:31:55;;;;;;;8.07;1.20;;;4.40;99.90;;;;;;5055162;28;20507;-82
2022/04/05 03:34:21;;;;;;;5.23;0.97;;;4.30;99.90;;;;;;5055165;28;20447;-82
2022/04/05 03:36:47;;;;;;;11.10;1.70;;;4.40;99.90;;;;;;5054891;28;20296;-81
2022/04/05 03:39:14;;;;;;;5.57;1.47;;;4.40;99.90;;;;;;5054853;28;20408;-81
2022/04/05 03:41:41;;;;;;;6.43;1.00;;;4.40;99.90;;;;;;5053681;28;20745;-81
2022/04/05 03:44:09;;;;;;;8.10;0.80;;;4.40;99.90;;;;;;5054963;28;20412;-81
2022/04/05 03:46:34;;;;;;;7.13;0.97;;;4.40;99.90;;;;;;5054885;28;20412;-81
2022/04/05 03:49:00;;;;;;;6.23;1.07;;;4.40;99.90;;;;;;5054748;28;20418;-81
2022/04/05 03:51:26;;;;;;;7.30;1.20;;;4.30;99.90;;;;;;5054823;28;20248;-81
2022/04/05 03:53:54;;;;;;;4.80;0.93;;;4.30;99.90;;;;;;5054730;28;20221;-81
2022/04/05 03:56:20;;;;;;;5.80;0.53;;;4.30;99.90;;;;;;5054361;28;20434;-81
2022/04/05 03:58:46;;;;;;;7.60;0.80;;;4.30;99.90;;;;;;5054547;28;20427;-81
2022/04/05 04:01:11;;;;;;;7.63;1.13;;;4.20;99.90;;;;;;5054491;28;20211;-81
2022/04/05 04:03:37;;;;;;;7.73;1.00;;;4.30;99.90;;;;;;5054585;28;20169;-81
2022/04/05 04:06:03;;;;;;;5.57;1.37;;;4.20;99.90;;;;;;5053276;28;20431;-81
2022/04/05 04:08:28;;;;;;;13.77;1.77;;;4.10;99.90;;;;;;5054543;28;20258;-81
2022/04/05 04:10:54;;;;;;;11.53;1.67;;;4.20;99.90;;;;;;5053997;28;20263;-81
2022/04/05 04:13:20;;;;;;;10.50;1.23;;;4.20;99.90;;;;;;5054480;28;20227;-81
2022/04/05 04:15:46;;;;;;;1.63;0.77;;;4.20;99.90;;;;;;5054307;28;20169;-83
2022/04/05 04:18:13;;;;;;;4.30;0.60;;;4.20;99.90;;;;;;5054297;28;20778;-83
2022/04/05 04:20:38;;;;;;;2.87;0.93;;;4.30;99.90;;;;;;5054216;28;20177;-81
2022/04/05 04:23:05;;;;;;;2.87;0.63;;;4.30;99.90;;;;;;5054192;28;20407;-81
2022/04/05 04:25:31;;;;;;;4.10;0.90;;;4.30;99.90;;;;;;5053786;28;20175;-82
2022/04/05 04:27:57;;;;;;;7.10;1.07;;;4.30;99.90;;;;;;5054067;28;20404;-83
2022/04/05 04:30:23;;;;;;;9.00;0.73;;;4.30;99.90;;;;;;5053952;28;20483;-82
2022/04/05 04:32:49;;;;;;;6.10;0.50;;;4.20;99.90;;;;;;5054112;28;20445;-83
2022/04/05 04:35:14;;;;;;;5.27;0.87;;;4.20;99.90;;;;;;5053991;28;20420;-82
2022/04/05 04:37:40;;;;;;;6.00;0.53;;;4.10;99.90;;;;;;5052501;28;20245;-82
2022/04/05 04:40:09;;;;;;;2.10;0.50;;;4.10;99.90;;;;;;5051531;28;20181;-82
2022/04/05 04:42:35;;;;;;;4.87;1.30;;;4.00;99.90;;;;;;5053787;28;20174;-82
2022/04/05 04:45:01;;;;;;;6.73;1.80;;;4.10;99.90;;;;;;5052550;28;20424;-82
2022/04/05 04:47:27;;;;;;;3.53;1.43;;;4.10;99.90;;;;;;5053792;28;20533;-82
2022/04/05 04:49:52;;;;;;;8.70;1.57;;;4.00;99.90;;;;;;5053750;28;20416;-82
2022/04/05 04:52:18;;;;;;;11.33;1.73;;;4.00;99.90;;;;;;5053842;28;20173;-83
2022/04/05 04:54:43;;;;;;;5.63;0.67;;;4.10;99.90;;;;;;5052087;28;20188;-82
2022/04/05 04:57:09;;;;;;;6.03;1.13;;;4.10;99.90;;;;;;5053622;28;20205;-82
2022/04/05 04:59:41;;;;;;;5.57;0.80;;;4.10;99.90;;;;;;5053621;28;20177;-82
2022/04/05 05:02:06;;;;;;;7.60;1.17;;;4.10;99.90;;;;;;5053484;28;20720;-82
2022/04/05 05:04:35;;;;;;;10.27;1.30;;;4.10;99.90;;;;;;5052221;28;20455;-81
2022/04/05 05:07:01;;;;;;;8.00;0.97;;;4.10;99.90;;;;;;5053443;28;20180;-82
2022/04/05 05:09:27;;;;;;;8.93;1.73;;;4.10;99.90;;;;;;5052935;28;20412;-82
2022/04/05 05:11:56;;;;;;;5.90;1.07;;;4.10;99.90;;;;;;5053191;28;20464;-81
2022/04/05 05:14:21;;;;;;;5.17;0.83;;;4.20;99.90;;;;;;5053226;28;20409;-82
2022/04/05 05:16:47;;;;;;;4.60;1.20;;;4.20;99.90;;;;;;5053151;28;21153;-82
2022/04/05 05:19:12;;;;;;;7.77;1.10;;;4.20;99.90;;;;;;5053227;28;20174;-81
2022/04/05 05:21:38;;;;;;;5.57;1.50;;;4.30;99.90;;;;;;5053066;28;20692;-82
2022/04/05 05:24:04;;;;;;;2.13;0.73;;;4.40;99.90;;;;;;5052723;28;20867;-82
2022/04/05 05:26:29;;;;;;;4.73;1.20;;;4.50;99.90;;;;;;5053019;28;20178;-81
2022/04/05 05:28:55;;;;;;;13.60;1.83;;;4.50;99.90;;;;;;5053054;28;20408;-81
2022/04/05 05:31:20;;;;;;;3.93;1.07;;;4.50;99.90;;;;;;5052841;28;20213;-81
2022/04/05 05:33:46;;;;;;;7.20;0.77;;;4.60;99.90;;;;;;5052990;28;20177;-81
2022/04/05 05:36:11;;;;;;;8.97;1.70;;;4.60;99.90;;;;;;5043796;28;20232;-81
2022/04/05 05:38:37;;;;;;;10.47;1.37;;;4.70;99.90;;;;;;5042812;28;20180;-81
2022/04/05 05:41:02;;;;;;;6.80;0.93;;;4.80;99.90;;;;;;5037742;28;20227;-82
2022/04/05 05:43:28;;;;;;;6.07;1.60;;;4.80;99.90;;;;;;5032847;28;20572;-81
2022/04/05 05:45:54;;;;;;;6.23;1.33;;;4.90;99.90;;;;;;5032943;28;20724;-81
2022/04/05 05:48:19;;;;;;;8.73;1.23;;;4.80;99.90;;;;;;5032795;28;20159;-81
2022/04/05 05:50:45;;;;;;;7.77;1.10;;;4.90;99.90;;;;;;5032419;28;20279;-81
2022/04/05 05:53:11;;;;;;;4.67;0.53;;;4.80;99.90;;;;;;5032795;28;20175;-81
2022/04/05 05:55:36;;;;;;;7.80;1.53;;;4.90;99.90;;;;;;5032406;28;20170;-81
2022/04/05 05:58:03;;;;;;;4.07;0.70;;;4.90;99.90;;;;;;5032799;28;20168;-81
2022/04/05 06:00:29;;;;;;;6.13;1.53;;;5.00;99.90;;;;;;5032667;28;20166;-79
2022/04/05 06:03:01;;;;;;;6.10;0.90;;;5.20;99.90;;;;;;5032759;28;20778;-80
2022/04/05 06:05:27;;;;;;;7.13;1.20;;;5.30;99.90;;;;;;5032731;28;20417;-80
2022/04/05 06:07:53;;;;;;;7.67;3.33;;;5.20;99.90;;;;;;5032563;28;20413;-80
2022/04/05 06:10:20;;;;;;;7.57;1.17;;;5.30;99.90;;;;;;5032184;28;20865;-81
2022/04/05 06:12:50;;;;;;;4.90;0.97;;;5.50;99.90;;;;;;5032134;28;20474;-82
2022/04/05 06:15:17;;;;;;;5.20;0.77;;;5.60;99.90;;;;;;5031435;28;20422;-83
2022/04/05 06:17:48;;;;;;;4.83;0.77;;;5.70;99.90;;;;;;5032618;28;20949;-81
2022/04/05 06:20:16;;;;;;;5.97;1.83;;;5.70;99.90;;;;;;5033178;28;20420;-84
2022/04/05 06:22:42;;;;;;;13.67;1.97;;;5.90;99.90;;;;;;5032503;28;20440;-80
2022/04/05 06:25:09;;;;;;;4.63;1.00;;;6.80;99.90;;;;;;5031377;28;20859;-80
2022/04/05 06:27:36;;;;;;;4.57;0.77;;;7.60;1.00;;;;;;5032071;28;20501;-80
2022/04/05 06:30:02;;;;;;;5.77;0.90;;;8.20;1.00;;;;;;5032171;28;20962;-81
2022/04/05 06:32:28;;;;;;;14.10;1.47;;;8.70;1.00;;;;;;5032245;28;20520;-81
2022/04/05 06:34:53;;;;;;;8.93;1.33;;;9.10;99.90;;;;;;5032281;28;20179;-79
2022/04/05 06:37:19;;;;;;;8.43;0.60;;;9.80;99.90;;;;;;5032053;28;20234;-81
2022/04/05 06:39:44;;;;;;;9.17;0.47;;;9.60;1.00;;;;;;5032052;28;20182;-81
2022/04/05 06:42:10;;;;;;;5.63;0.67;;;9.50;1.00;;;;;;5032267;28;20184;-81
2022/04/05 06:44:35;;;;;;;7.80;1.70;;;10.60;1.00;;;;;;5032108;28;20218;-80
2022/04/05 06:47:01;;;;;;;4.50;0.93;;;11.20;99.90;;;;;;5032430;28;20168;-80
2022/04/05 06:49:26;;;;;;;4.03;0.37;;;11.90;99.90;;;;;;5032115;28;20508;-80
2022/04/05 06:51:52;;;;;;;3.83;0.40;;;11.40;99.90;;;;;;5032046;28;20559;-80
2022/04/05 06:54:17;;;;;;;7.53;0.70;;;12.50;99.90;;;;;;5031842;28;20523;-81
2022/04/05 06:56:43;;;;;;;5.33;1.60;;;10.40;99.90;;;;;;5032214;28;20177;-81
2022/04/05 06:59:08;;;;;;;3.50;0.40;;;8.90;1.00;;;;;;5032216;28;20180;-81
2022/04/05 07:01:35;;;;;;;2.83;0.40;;;8.20;1.00;;;;;;5032184;28;20715;-81
2022/04/05 07:04:01;;;;;;;3.60;0.70;;;7.60;1.00;;;;;;5034460;28;20177;-82
2022/04/05 07:06:26;;;;;;;2.87;0.40;;;7.30;40.30;;;;;;5035855;28;20416;-81
2022/04/05 07:08:51;;;;;;;6.70;0.60;;;7.40;99.90;;;;;;5035514;28;20861;-82
2022/04/05 07:11:17;;;;;;;2.43;0.50;;;7.50;45.70;;;;;;5035476;28;20210;-81
2022/04/05 07:13:43;;;;;;;8.37;1.07;;;7.70;1.00;;;;;;5035661;28;20176;-83
2022/04/05 07:16:08;;;;;;;5.10;0.70;;;7.30;99.90;;;;;;5035605;28;20224;-82
2022/04/05 07:18:34;;;;;;;6.13;0.93;;;7.30;1.00;;;;;;5035573;28;20218;-80
2022/04/05 07:21:01;;;;;;;2.47;0.50;;;7.70;1.00;;;;;;5035431;28;20205;-82
2022/04/05 07:23:26;;;;;;;4.80;0.50;;;8.00;99.90;;;;;;5035412;28;20209;-80
2022/04/05 07:25:52;;;;;;;3.73;0.80;;;9.40;99.90;;;;;;5034985;28;20432;-81
2022/04/05 07:28:20;;;;;;;3.67;0.57;;;8.40;99.90;;;;;;5035558;28;20257;-81
2022/04/05 07:30:47;;;;;;;4.40;1.50;;;7.70;99.90;;;;;;5035412;28;20672;-81
2022/04/05 07:33:12;;;;;;;4.83;0.60;;;7.70;99.90;;;;;;5035245;28;20403;-79
2022/04/05 07:35:38;;;;;;;3.60;0.60;;;7.60;1.00;;;;;;5035092;28;20425;-79
2022/04/05 07:38:03;;;;;;;3.73;0.30;;;7.40;99.90;;;;;;5034168;28;20228;-80
2022/04/05 07:40:47;;;;;;;3.50;0.70;;;8.20;1.00;;;;;;5035151;28;20194;-82
2022/04/05 07:43:14;;;;;;;2.37;0.20;;;11.20;1.00;;;;;;5035191;28;20184;-85
2022/04/05 07:45:40;;;;;;;3.07;0.40;;;12.20;99.90;;;;;;5043735;28;20421;-91
2022/04/05 07:48:08;;;;;;;4.60;0.57;;;11.50;99.90;;;;;;5054432;28;20424;-91
2022/04/05 07:50:33;;;;;;;3.43;0.30;;;12.30;99.90;;;;;;5055565;28;20217;-93
2022/04/05 07:52:59;;;;;;;5.50;0.40;;;13.10;99.90;;;;;;5057312;28;20412;-90
2022/04/05 07:55:24;;;;;;;2.00;0.30;;;12.70;99.90;;;;;;5054290;28;20226;-89
2022/04/05 07:57:50;;;;;;;2.93;0.20;;;13.80;99.90;;;;;;5054734;28;20585;-90
2022/04/05 08:00:16;;;;;;;4.17;0.40;;;14.50;99.90;;;;;;5057328;28;20177;-90
2022/04/05 08:02:41;;;;;;;3.80;0.40;;;13.60;99.90;;;;;;5074489;28;20179;-91
2022/04/05 08:05:08;;;;;;;4.27;0.30;;;12.70;99.90;;;;;;5059021;28;20520;-88
2022/04/05 08:07:33;;;;;;;3.13;0.30;;;12.90;99.90;;;;;;5068451;28;20213;-90
2022/04/05 08:09:59;;;;;;;3.77;0.40;;;13.00;99.90;;;;;;5069617;28;20940;-91
2022/04/05 08:12:24;;;;;;;6.00;0.70;;;12.90;99.90;;;;;;5071750;28;20179;-90
2022/04/05 08:14:50;;;;;;;4.73;0.67;;;12.70;99.90;;;;;;5065588;28;20202;-93
2022/04/05 08:17:15;;;;;;;8.10;0.60;;;12.70;99.90;;;;;;5068129;28;20199;-92
2022/04/05 08:19:41;;;;;;;3.27;0.60;;;14.10;99.90;;;;;;5068796;28;20206;-92
2022/04/05 08:22:08;;;;;;;2.90;0.50;;;14.90;99.90;;;;;;5072424;28;20265;-93
2022/04/05 08:24:34;;;;;;;7.40;1.00;;;14.80;99.90;;;;;;5072981;28;20236;-90
2022/04/05 08:27:00;;;;;;;3.13;0.30;;;13.00;98.60;;;;;;5073738;28;20430;-90
2022/04/05 08:29:26;;;;;;;6.97;1.53;;;14.10;99.90;;;;;;5195856;22;20498;-88
2022/04/05 08:31:51;;;;;;;4.33;0.77;;;14.80;99.90;;;;;;5122480;22;20498;-86
2022/04/05 08:34:18;;;;;;;4.77;0.60;;;14.80;99.90;;;;;;5157779;22;20235;-88
2022/04/05 08:36:44;;;;;;;2.87;0.60;;;15.10;99.90;;;;;;5156379;22;20256;-87
2022/04/05 08:39:09;;;;;;;3.73;0.57;;;15.50;99.90;;;;;;5188413;22;20508;-87
2022/04/05 08:41:36;;;;;;;3.20;0.40;;;14.70;87.00;;;;;;5064968;28;20554;-89
2022/04/05 08:44:02;;;;;;;4.57;0.77;;;13.10;74.70;;;;;;5069670;28;20248;-88
2022/04/05 08:46:39;;;;;;;3.80;0.50;;;11.80;98.30;;;;;;5067457;28;20449;-87
2022/04/05 08:49:06;;;;;;;4.37;0.63;;;10.90;99.90;;;;;;5066008;28;20413;-88
2022/04/05 08:51:34;;;;;;;3.30;0.40;;;11.30;99.90;;;;;;5054513;28;21057;-88
2022/04/05 08:53:59;;;;;;;6.97;0.30;;;11.80;99.90;;;;;;5059919;28;20432;-86
2022/04/05 08:56:30;;;;;;;3.10;0.20;;;12.70;99.90;;;;;;5070557;28;20439;-89
2022/04/05 08:58:58;;;;;;;4.57;0.43;;;13.90;96.80;;;;;;5075838;28;20219;-87
2022/04/05 09:01:24;;;;;;;1.73;0.30;;;14.70;88.40;;;;;;5074636;28;20457;-89
2022/04/05 09:03:50;;;;;;;4.20;0.30;;;14.50;63.90;;;;;;5054862;28;20457;-90
2022/04/05 09:06:28;;;;;;;5.03;0.63;;;12.80;46.30;;;;;;5053795;28;20245;-88
2022/04/05 09:09:11;;;;;;;1.70;0.50;;;11.80;62.60;;;;;;5053057;28;20426;-87
2022/04/05 09:11:54;;;;;;;2.57;0.30;;;12.50;91.50;;;;;;5068250;28;20587;-86
2022/04/05 09:14:27;;;;;;;3.93;0.57;;;12.40;91.20;;;;;;5053077;28;20419;-86
2022/04/05 09:17:06;;;;;;;4.87;0.60;;;11.90;96.60;;;;;;5053012;28;20436;-86
2022/04/05 09:19:42;;;;;;;6.53;0.50;;;11.60;99.90;;;;;;5052745;28;20412;-85
2022/04/05 09:22:10;;;;;;;1.93;0.50;;;12.00;99.90;;;;;;5068191;28;20527;-86
2022/04/05 09:24:43;;;;;;;5.60;1.33;;;11.00;99.90;;;;;;5067914;28;20427;-85
2022/04/05 09:27:09;;;;;;;4.53;0.43;;;10.30;99.90;;;;;;5046964;28;20442;-86
2022/04/05 09:29:51;;;;;;;2.40;0.47;;;9.70;1.00;;;;;;5067832;28;20440;-85
2022/04/05 09:32:37;;;;;;;3.17;0.37;;;10.40;1.00;;;;;;5052234;28;20469;-84
2022/04/05 09:35:03;;;;;;;6.27;0.30;;;9.60;1.00;;;;;;5052662;28;20424;-80
2022/04/05 09:37:29;;;;;;;3.43;1.07;;;9.30;99.90;;;;;;5052689;28;20520;-83
2022/04/05 09:40:16;;;;;;;2.07;0.40;;;9.10;1.00;;;;;;5052003;28;20532;-84
2022/04/05 09:43:07;;;;;;;2.97;0.23;;;9.30;99.90;;;;;;5032450;28;20177;-82
2022/04/05 09:45:47;;;;;;;1.53;0.30;;;9.40;99.90;;;;;;5031063;28;20462;-80
2022/04/05 09:48:15;;;;;;;2.53;0.20;;;9.20;1.00;;;;;;5031547;28;20409;-86
2022/04/05 09:50:58;;;;;;;4.73;0.87;;;9.10;99.90;;;;;;5032087;28;20882;-82
2022/04/05 09:53:24;;;;;;;5.13;0.80;;;9.20;1.00;;;;;;5032344;28;20914;-85
2022/04/05 09:56:18;;;;;;;2.90;0.37;;;10.30;99.90;;;;;;5032400;28;20409;-79
2022/04/05 09:58:54;;;;;;;2.30;0.37;;;9.60;1.50;;;;;;5032262;28;20450;-79
2022/04/05 10:01:25;;;;;;;8.20;2.20;;;8.80;99.90;;;;;;5032583;28;20420;-80
2022/04/05 10:04:09;;;;;;;4.20;0.70;;;8.80;99.90;;;;;;5030147;28;20429;-80
2022/04/05 10:06:41;;;;;;;7.70;0.80;;;8.50;99.90;;;;;;5030603;28;20471;-79
2022/04/05 10:09:07;;;;;;;4.13;0.67;;;8.20;1.00;;;;;;5031858;28;20509;-80
2022/04/05 10:11:35;;;;;;;2.97;0.73;;;8.00;1.00;;;;;;5031802;28;20567;-80
2022/04/05 10:14:01;;;;;;;4.93;0.70;;;8.10;3.90;;;;;;5031959;28;20413;-79
2022/04/05 10:16:28;;;;;;;4.70;0.30;;;8.10;29.80;;;;;;5031136;28;20431;-83
2022/04/05 10:19:04;;;;;;;0.60;0.30;;;8.20;99.30;;;;;;5031687;28;20495;-81
2022/04/05 10:21:34;;;;;;;1.63;0.47;;;8.10;99.90;;;;;;5031546;28;20928;-81
2022/04/05 10:24:01;;;;;;;3.60;0.30;;;8.00;52.40;;;;;;5031768;28;20425;-80
2022/04/05 10:26:29;;;;;;;5.43;0.50;;;7.90;99.90;;;;;;5031879;28;20411;-81
2022/04/05 10:29:00;;;;;;;6.07;0.73;;;8.10;99.90;;;;;;5031954;28;20415;-89
2022/04/05 10:31:57;;;;;;;3.50;0.50;;;8.20;99.90;;;;;;5033369;28;20470;-85
2022/04/05 10:34:30;;;;;;;6.63;0.93;;;8.50;99.90;;;;;;5047453;28;20513;-86
2022/04/05 10:37:17;;;;;;;3.70;0.40;;;8.70;81.80;;;;;;5032014;28;20980;-85
2022/04/05 10:40:04;;;;;;;4.50;0.60;;;8.90;55.10;;;;;;5033643;28;20478;-87
2022/04/05 10:42:52;;;;;;;8.10;0.93;;;8.90;1.00;;;;;;5036173;28;20438;-87
2022/04/05 10:45:25;;;;;;;3.70;0.60;;;8.70;1.00;;;;;;5034905;28;20419;-86
2022/04/05 10:48:14;;;;;;;3.53;0.50;;;8.60;1.00;;;;;;5033849;28;20420;-87
2022/04/05 10:50:41;;;;;;;4.37;1.37;;;8.60;1.00;;;;;;5035401;28;20463;-85
2022/04/05 10:53:14;;;;;;;4.10;0.50;;;8.50;1.00;;;;;;5053736;28;20433;-86
2022/04/05 10:56:09;;;;;;;1.10;0.30;;;8.70;1.00;;;;;;5070514;28;20435;-85
2022/04/05 10:58:47;;;;;;;4.63;0.90;;;9.00;1.00;;;;;;5070872;28;20430;-86
2022/04/05 11:01:17;;;;;;;5.97;0.70;;;9.00;1.00;;;;;;5070375;28;21013;-86
2022/04/05 11:04:03;;;;;;;8.33;1.40;;;9.00;1.00;;;;;;5069681;28;20429;-86
2022/04/05 11:06:28;;;;;;;3.23;1.67;;;9.00;1.00;;;;;;5070187;28;20779;-88
2022/04/05 11:08:54;;;;;;;3.70;0.67;;;8.90;1.00;;;;;;5054692;28;20418;-87
2022/04/05 11:11:20;;;;;;;4.27;0.60;;;8.90;27.40;;;;;;5054813;28;20232;-87
2022/04/05 11:13:48;;;;;;;4.93;0.70;;;8.60;1.00;;;;;;5054754;28;20275;-87
2022/04/05 11:16:14;;;;;;;4.00;0.70;;;8.50;1.00;;;;;;5054863;28;20412;-87
2022/04/05 11:18:41;;;;;;;3.03;0.60;;;8.60;54.90;;;;;;5055007;28;20422;-86
2022/04/05 11:21:12;;;;;;;3.70;0.90;;;8.40;1.00;;;;;;5070158;28;20660;-86
2022/04/05 11:23:49;;;;;;;3.30;0.30;;;8.40;72.80;;;;;;5070495;28;20415;-88
2022/04/05 11:26:28;;;;;;;4.80;0.43;;;8.10;55.10;;;;;;5053957;28;20463;-85
2022/04/05 11:28:55;;;;;;;2.40;0.57;;;8.10;94.30;;;;;;5054742;28;20416;-83
2022/04/05 11:32:05;;;;;;;1.40;0.30;;;8.00;99.20;;;;;;5054607;28;20479;-83
2022/04/05 11:34:46;;;;;;;2.77;0.93;;;8.10;99.90;;;;;;5035531;28;20768;-86
2022/04/05 11:37:12;;;;;;;9.83;1.40;;;8.00;99.90;;;;;;5034275;28;20419;-91
2022/04/05 11:39:42;;;;;;;3.93;1.37;;;7.90;99.90;;;;;;5035243;28;20811;-87
2022/04/05 11:42:08;;;;;;;5.90;0.93;;;8.10;99.90;;;;;;5035329;28;20168;-85
2022/04/05 11:44:34;;;;;;;5.07;0.80;;;8.30;99.90;;;;;;5035170;28;20407;-87
2022/04/05 11:47:01;;;;;;;3.03;0.93;;;8.40;99.90;;;;;;5051274;28;20319;-87
2022/04/05 11:49:26;;;;;;;6.67;1.30;;;8.40;99.90;;;;;;5054308;28;20180;-88
2022/04/05 11:51:53;;;;;;;2.00;0.97;;;8.40;99.90;;;;;;5053425;28;20472;-88
2022/04/05 11:54:24;;;;;;;3.30;1.07;;;8.40;99.90;;;;;;5052984;28;20172;-85
2022/04/05 11:56:50;;;;;;;5.97;1.13;;;8.40;99.90;;;;;;5053146;28;20430;-87
2022/04/05 11:59:18;;;;;;;5.73;0.77;;;8.50;99.90;;;;;;5053495;28;20427;-88
2022/04/05 12:01:49;;;;;;;2.80;0.80;;;8.60;47.30;;;;;;5053464;28;20506;-86
2022/04/05 12:04:22;;;;;;;2.70;0.50;;;8.70;99.90;;;;;;5052762;28;20815;-86
2022/04/05 12:06:53;;;;;;;6.47;1.20;;;8.80;28.40;;;;;;5053877;28;20776;-86
2022/04/05 12:09:20;;;;;;;5.50;1.13;;;8.50;65.90;;;;;;5053744;28;20412;-87
2022/04/05 12:11:48;;;;;;;3.47;0.57;;;8.30;37.50;;;;;;5052836;28;20813;-86
2022/04/05 12:14:15;;;;;;;3.20;0.87;;;8.20;99.90;;;;;;5054046;28;20485;-90
2022/04/05 12:17:03;;;;;;;1.77;0.60;;;8.10;99.90;;;;;;5052770;28;20427;-87
2022/04/05 12:19:39;;;;;;;4.10;0.97;;;7.90;99.90;;;;;;5054252;28;20452;-88
2022/04/05 12:22:10;;;;;;;3.20;0.50;;;7.80;99.90;;;;;;5037353;28;20486;-88
2022/04/05 12:24:42;;;;;;;5.80;1.30;;;7.70;99.90;;;;;;5053175;28;20422;-89
2022/04/05 12:27:08;;;;;;;2.53;0.80;;;7.80;99.90;;;;;;5053392;28;20435;-88
2022/04/05 12:29:41;;;;;;;5.67;0.83;;;7.70;99.90;;;;;;5053391;28;20427;-86
2022/04/05 12:32:09;;;;;;;1.07;0.40;;;7.70;99.90;;;;;;5052591;28;20555;-88
2022/04/05 12:34:35;;;;;;;4.20;0.83;;;7.90;99.90;;;;;;5052752;28;20418;-87
2022/04/05 12:37:03;;;;;;;1.93;0.67;;;7.70;99.90;;;;;;5052518;28;20437;-86
2022/04/05 12:39:33;;;;;;;1.03;0.63;;;7.80;99.90;;;;;;5053271;28;20314;-86
2022/04/05 12:42:04;;;;;;;3.33;0.43;;;7.90;99.90;;;;;;5052306;28;20420;-86
2022/04/05 12:44:40;;;;;;;3.80;0.40;;;7.90;99.90;;;;;;5052732;28;20458;-87
2022/04/05 12:47:12;;;;;;;1.97;1.03;;;8.00;99.90;;;;;;5054329;28;20438;-88
2022/04/05 12:49:40;;;;;;;1.77;0.43;;;8.10;99.90;;;;;;5054407;28;20497;-86
2022/04/05 12:52:14;;;;;;;1.40;0.50;;;8.20;99.90;;;;;;5052929;28;20504;-86
2022/04/05 12:54:55;;;;;;;1.57;0.30;;;8.20;99.90;;;;;;5053899;28;20406;-88
2022/04/05 12:57:37;;;;;;;5.67;0.53;;;8.10;99.90;;;;;;5053950;28;20421;-87
2022/04/05 13:00:15;;;;;;;0.80;0.20;;;8.10;99.90;;;;;;5053917;28;20807;-89
2022/04/05 13:02:49;;;;;;;1.90;0.30;;;8.20;99.90;;;;;;5053896;28;20498;-86